sensor_id;sensor_type;location;lat;lon;timestamp;pressure;altitude;pressure_sealevel;temperature;humidity
28630;BME280;15817;42.130;24.762;2022-11-15T00:00:13;100619.44;;;8.60;100.00
28630;BME280;15817;42.130;24.762;2022-11-15T00:02:58;100616.81;;;8.60;100.00
28630;BME280;15817;42.130;24.762;2022-11-15T00:05:44;100625.72;;;8.65;100.00
28630;BME280;15817;42.130;24.762;2022-11-15T00:08:32;100625.69;;;8.63;100.00
28630;BME280;15817;42.130;24.762;2022-11-15T00:11:16;100620.41;;;8.63;100.00
28630;BME280;15817;42.130;24.762;2022-11-15T00:14:04;100621.13;;;8.55;100.00
28630;BME280;15817;42.130;24.762;2022-11-15T00:16:48;100621.09;;;8.50;100.00
28630;BME280;15817;42.130;24.762;2022-11-15T00:19:36;100619.25;;;8.46;100.00
28630;BME280;15817;42.130;24.762;2022-11-15T00:22:20;100621.03;;;8.47;100.00
28630;BME280;15817;42.130;24.762;2022-11-15T00:25:26;100622.75;;;8.42;100.00
28630;BME280;15817;42.130;24.762;2022-11-15T00:28:10;100617.38;;;8.39;100.00
28630;BME280;15817;42.130;24.762;2022-11-15T00:31:03;100623.56;;;8.38;100.00
28630;BME280;15817;42.130;24.762;2022-11-15T00:33:47;100612.88;;;8.33;100.00
28630;BME280;15817;42.130;24.762;2022-11-15T00:36:37;100621.84;;;8.42;100.00
28630;BME280;15817;42.130;24.762;2022-11-15T00:39:30;100609.50;;;8.42;100.00
28630;BME280;15817;42.130;24.762;2022-11-15T00:42:17;100619.31;;;8.51;100.00
28630;BME280;15817;42.130;24.762;2022-11-15T00:45:07;100617.44;;;8.42;100.00
28630;BME280;15817;42.130;24.762;2022-11-15T00:47:55;100605.72;;;8.29;100.00
28630;BME280;15817;42.130;24.762;2022-11-15T00:50:39;100612.72;;;8.26;100.00
28630;BME280;15817;42.130;24.762;2022-11-15T00:53:24;100604.66;;;8.17;100.00
28630;BME280;15817;42.130;24.762;2022-11-15T00:56:11;100603.66;;;8.10;100.00
28630;BME280;15817;42.130;24.762;2022-11-15T00:58:55;100595.66;;;8.06;100.00
28630;BME280;15817;42.130;24.762;2022-11-15T01:01:42;100609.91;;;8.15;100.00
28630;BME280;15817;42.130;24.762;2022-11-15T01:04:27;100610.84;;;8.17;100.00
28630;BME280;15817;42.130;24.762;2022-11-15T01:07:11;100597.44;;;8.08;100.00
28630;BME280;15817;42.130;24.762;2022-11-15T01:09:56;100609.97;;;8.18;100.00
28630;BME280;15817;42.130;24.762;2022-11-15T01:12:40;100599.38;;;8.20;100.00
28630;BME280;15817;42.130;24.762;2022-11-15T01:15:31;100590.53;;;8.18;100.00
28630;BME280;15817;42.130;24.762;2022-11-15T01:18:16;100600.44;;;8.29;100.00
28630;BME280;15817;42.130;24.762;2022-11-15T01:21:07;100601.34;;;8.31;100.00
28630;BME280;15817;42.130;24.762;2022-11-15T01:23:55;100584.44;;;8.25;100.00
28630;BME280;15817;42.130;24.762;2022-11-15T01:26:40;100592.47;;;8.31;100.00
28630;BME280;15817;42.130;24.762;2022-11-15T01:29:25;100587.13;;;8.26;100.00
28630;BME280;15817;42.130;24.762;2022-11-15T01:32:09;100593.31;;;8.27;100.00
28630;BME280;15817;42.130;24.762;2022-11-15T01:34:53;100601.38;;;8.33;100.00
28630;BME280;15817;42.130;24.762;2022-11-15T01:37:40;100588.03;;;8.28;100.00
28630;BME280;15817;42.130;24.762;2022-11-15T01:40:24;100587.22;;;8.32;100.00
28630;BME280;15817;42.130;24.762;2022-11-15T01:43:22;100584.66;;;8.37;100.00
28630;BME280;15817;42.130;24.762;2022-11-15T01:46:33;100589.97;;;8.37;100.00
28630;BME280;15817;42.130;24.762;2022-11-15T01:49:27;100584.66;;;8.37;100.00
28630;BME280;15817;42.130;24.762;2022-11-15T01:52:17;100584.66;;;8.37;100.00
28630;BME280;15817;42.130;24.762;2022-11-15T01:55:35;100582.81;;;8.33;100.00
28630;BME280;15817;42.130;24.762;2022-11-15T01:58:19;100574.94;;;8.36;100.00
28630;BME280;15817;42.130;24.762;2022-11-15T02:01:04;100589.13;;;8.40;100.00
28630;BME280;15817;42.130;24.762;2022-11-15T02:03:53;100581.19;;;8.41;100.00
28630;BME280;15817;42.130;24.762;2022-11-15T02:06:41;100582.97;;;8.41;100.00
28630;BME280;15817;42.130;24.762;2022-11-15T02:09:27;100584.72;;;8.40;100.00
28630;BME280;15817;42.130;24.762;2022-11-15T02:12:15;100588.28;;;8.44;100.00
28630;BME280;15817;42.130;24.762;2022-11-15T02:15:03;100587.44;;;8.46;100.00
28630;BME280;15817;42.130;24.762;2022-11-15T02:32:48;100580.31;;;8.44;100.00
28630;BME280;15817;42.130;24.762;2022-11-15T02:35:50;100570.59;;;8.43;100.00
28630;BME280;15817;42.130;24.762;2022-11-15T02:38:47;100562.63;;;8.43;100.00
28630;BME280;15817;42.130;24.762;2022-11-15T02:44:43;100575.91;;;8.41;100.00
28630;BME280;15817;42.130;24.762;2022-11-15T02:47:31;100575.03;;;8.44;100.00
28630;BME280;15817;42.130;24.762;2022-11-15T02:50:21;100575.88;;;8.43;100.00
28630;BME280;15817;42.130;24.762;2022-11-15T02:53:08;100564.38;;;8.39;100.00
28630;BME280;15817;42.130;24.762;2022-11-15T02:55:54;100567.00;;;8.38;100.00
28630;BME280;15817;42.130;24.762;2022-11-15T03:02:04;100560.84;;;8.39;100.00
28630;BME280;15817;42.130;24.762;2022-11-15T03:04:56;100560.81;;;8.37;100.00
28630;BME280;15817;42.130;24.762;2022-11-15T03:07:57;100557.28;;;8.37;100.00
28630;BME280;15817;42.130;24.762;2022-11-15T03:19:48;100567.81;;;8.33;100.00
28630;BME280;15817;42.130;24.762;2022-11-15T03:22:37;100561.66;;;8.34;100.00
28630;BME280;15817;42.130;24.762;2022-11-15T03:25:25;100559.06;;;8.38;100.00
28630;BME280;15817;42.130;24.762;2022-11-15T03:28:18;100554.66;;;8.40;100.00
28630;BME280;15817;42.130;24.762;2022-11-15T03:31:04;100554.66;;;8.40;100.00
28630;BME280;15817;42.130;24.762;2022-11-15T03:34:22;100555.56;;;8.40;100.00
28630;BME280;15817;42.130;24.762;2022-11-15T03:37:11;100548.44;;;8.38;100.00
28630;BME280;15817;42.130;24.762;2022-11-15T03:39:57;100545.81;;;8.39;100.00
28630;BME280;15817;42.130;24.762;2022-11-15T03:46:05;100547.50;;;8.34;100.00
28630;BME280;15817;42.130;24.762;2022-11-15T03:48:53;100545.78;;;8.36;100.00
28630;BME280;15817;42.130;24.762;2022-11-15T03:51:40;100534.25;;;8.34;100.00
28630;BME280;15817;42.130;24.762;2022-11-15T03:54:24;100532.44;;;8.31;100.00
28630;BME280;15817;42.130;24.762;2022-11-15T03:57:08;100527.97;;;8.29;100.00
28630;BME280;15817;42.130;24.762;2022-11-15T03:59:53;100521.81;;;8.30;100.00
28630;BME280;15817;42.130;24.762;2022-11-15T04:02:39;100517.41;;;8.30;100.00
28630;BME280;15817;42.130;24.762;2022-11-15T04:05:24;100518.31;;;8.32;100.00
28630;BME280;15817;42.130;24.762;2022-11-15T04:08:09;100520.13;;;8.35;100.00
28630;BME280;15817;42.130;24.762;2022-11-15T04:10:53;100521.06;;;8.39;100.00
28630;BME280;15817;42.130;24.762;2022-11-15T04:13:38;100512.16;;;8.33;100.00
28630;BME280;15817;42.130;24.762;2022-11-15T04:16:22;100520.22;;;8.41;100.00
28630;BME280;15817;42.130;24.762;2022-11-15T04:19:07;100514.88;;;8.38;100.00
28630;BME280;15817;42.130;24.762;2022-11-15T04:22:10;100512.22;;;8.37;100.00
28630;BME280;15817;42.130;24.762;2022-11-15T04:25:23;100497.06;;;8.31;100.00
28630;BME280;15817;42.130;24.762;2022-11-15T04:28:08;100501.56;;;8.33;100.00
28630;BME280;15817;42.130;24.762;2022-11-15T04:30:53;100499.72;;;8.29;100.00
28630;BME280;15817;42.130;24.762;2022-11-15T04:33:37;100496.16;;;8.27;100.00
28630;BME280;15817;42.130;24.762;2022-11-15T04:36:22;100502.44;;;8.32;100.00
28630;BME280;15817;42.130;24.762;2022-11-15T04:39:25;100497.88;;;8.25;100.00
28630;BME280;15817;42.130;24.762;2022-11-15T04:42:12;100507.66;;;8.31;100.00
28630;BME280;15817;42.130;24.762;2022-11-15T04:44:56;100501.47;;;8.27;100.00
28630;BME280;15817;42.130;24.762;2022-11-15T04:47:43;100508.63;;;8.33;100.00
28630;BME280;15817;42.130;24.762;2022-11-15T04:50:27;100505.06;;;8.32;100.00
28630;BME280;15817;42.130;24.762;2022-11-15T04:53:11;100498.81;;;8.27;100.00
28630;BME280;15817;42.130;24.762;2022-11-15T04:55:56;100509.47;;;8.32;100.00
28630;BME280;15817;42.130;24.762;2022-11-15T04:58:42;100509.47;;;8.32;100.00
28630;BME280;15817;42.130;24.762;2022-11-15T05:01:27;100497.06;;;8.28;100.00
28630;BME280;15817;42.130;24.762;2022-11-15T05:04:11;100512.13;;;8.32;100.00
28630;BME280;15817;42.130;24.762;2022-11-15T05:07:13;100506.78;;;8.29;100.00
28630;BME280;15817;42.130;24.762;2022-11-15T05:09:57;100507.66;;;8.28;100.00
28630;BME280;15817;42.130;24.762;2022-11-15T05:12:41;100504.09;;;8.26;100.00
28630;BME280;15817;42.130;24.762;2022-11-15T05:15:26;100506.69;;;8.23;100.00
28630;BME280;15817;42.130;24.762;2022-11-15T05:18:20;100498.63;;;8.15;100.00
28630;BME280;15817;42.130;24.762;2022-11-15T05:21:05;100509.28;;;8.18;100.00
28630;BME280;15817;42.130;24.762;2022-11-15T05:23:50;100498.69;;;8.18;100.00
28630;BME280;15817;42.130;24.762;2022-11-15T05:26:34;100498.63;;;8.15;100.00
28630;BME280;15817;42.130;24.762;2022-11-15T05:29:19;100505.66;;;8.13;100.00
28630;BME280;15817;42.130;24.762;2022-11-15T05:32:08;100505.66;;;8.12;100.00
28630;BME280;15817;42.130;24.762;2022-11-15T05:34:54;100508.25;;;8.09;100.00
28630;BME280;15817;42.130;24.762;2022-11-15T05:37:39;100516.22;;;8.10;100.00
28630;BME280;15817;42.130;24.762;2022-11-15T05:40:24;100505.66;;;8.12;100.00
28630;BME280;15817;42.130;24.762;2022-11-15T05:43:09;100505.63;;;8.10;100.00
28630;BME280;15817;42.130;24.762;2022-11-15T05:45:54;100503.91;;;8.14;100.00
28630;BME280;15817;42.130;24.762;2022-11-15T05:48:41;100501.25;;;8.14;100.00
28630;BME280;15817;42.130;24.762;2022-11-15T05:51:28;100509.25;;;8.17;100.00
28630;BME280;15817;42.130;24.762;2022-11-15T05:54:14;100522.53;;;8.20;100.00
28630;BME280;15817;42.130;24.762;2022-11-15T05:56:58;100519.06;;;8.24;100.00
28630;BME280;15817;42.130;24.762;2022-11-15T05:59:45;100514.53;;;8.15;100.00
28630;BME280;15817;42.130;24.762;2022-11-15T06:02:30;100520.78;;;8.22;100.00
28630;BME280;15817;42.130;24.762;2022-11-15T06:05:14;100523.47;;;8.23;100.00
28630;BME280;15817;42.130;24.762;2022-11-15T06:07:59;100525.22;;;8.23;100.00
28630;BME280;15817;42.130;24.762;2022-11-15T06:10:43;100521.75;;;8.25;100.00
28630;BME280;15817;42.130;24.762;2022-11-15T06:13:35;100533.22;;;8.26;100.00
28630;BME280;15817;42.130;24.762;2022-11-15T06:16:20;100527.94;;;8.26;100.00
28630;BME280;15817;42.130;24.762;2022-11-15T06:19:06;100531.47;;;8.26;100.00
28630;BME280;15817;42.130;24.762;2022-11-15T06:21:50;100537.72;;;8.30;100.00
28630;BME280;15817;42.130;24.762;2022-11-15T06:24:37;100528.81;;;8.26;100.00
28630;BME280;15817;42.130;24.762;2022-11-15T06:27:21;100537.72;;;8.30;100.00
28630;BME280;15817;42.130;24.762;2022-11-15T06:30:06;100534.16;;;8.31;100.00
28630;BME280;15817;42.130;24.762;2022-11-15T06:32:51;100530.72;;;8.33;100.00
28630;BME280;15817;42.130;24.762;2022-11-15T06:35:36;100538.69;;;8.35;100.00
28630;BME280;15817;42.130;24.762;2022-11-15T06:38:20;100530.69;;;8.32;100.00
28630;BME280;15817;42.130;24.762;2022-11-15T06:41:07;100524.41;;;8.27;100.00
28630;BME280;15817;42.130;24.762;2022-11-15T06:43:52;100529.75;;;8.28;100.00
28630;BME280;15817;42.130;24.762;2022-11-15T06:46:36;100530.72;;;8.33;100.00
28630;BME280;15817;42.130;24.762;2022-11-15T06:49:20;100531.72;;;8.42;100.00
28630;BME280;15817;42.130;24.762;2022-11-15T06:52:05;100533.47;;;8.40;100.00
28630;BME280;15817;42.130;24.762;2022-11-15T06:54:49;100536.13;;;8.43;100.00
28630;BME280;15817;42.130;24.762;2022-11-15T06:57:34;100533.50;;;8.41;100.00
28630;BME280;15817;42.130;24.762;2022-11-15T07:00:22;100530.81;;;8.43;100.00
28630;BME280;15817;42.130;24.762;2022-11-15T07:03:21;100529.09;;;8.45;100.00
28630;BME280;15817;42.130;24.762;2022-11-15T07:06:06;100528.28;;;8.49;100.00
28630;BME280;15817;42.130;24.762;2022-11-15T07:08:51;100526.56;;;8.52;100.00
28630;BME280;15817;42.130;24.762;2022-11-15T07:11:35;100507.13;;;8.55;100.00
28630;BME280;15817;42.130;24.762;2022-11-15T07:14:19;100507.22;;;8.61;100.00
28630;BME280;15817;42.130;24.762;2022-11-15T07:17:04;100508.13;;;8.61;100.00
28630;BME280;15817;42.130;24.762;2022-11-15T07:19:49;100514.38;;;8.69;100.00
28630;BME280;15817;42.130;24.762;2022-11-15T07:22:33;100510.91;;;8.74;100.00
28630;BME280;15817;42.130;24.762;2022-11-15T07:25:17;100517.13;;;8.76;99.33
28630;BME280;15817;42.130;24.762;2022-11-15T07:28:02;100513.59;;;8.78;98.60
28630;BME280;15817;42.130;24.762;2022-11-15T07:30:46;100504.78;;;8.79;98.15
28630;BME280;15817;42.130;24.762;2022-11-15T07:33:31;100511.06;;;8.86;98.72
28630;BME280;15817;42.130;24.762;2022-11-15T07:36:15;100510.22;;;8.91;99.55
28630;BME280;15817;42.130;24.762;2022-11-15T07:39:00;100508.47;;;8.93;98.96
28630;BME280;15817;42.130;24.762;2022-11-15T07:41:44;100508.50;;;8.95;99.29
28630;BME280;15817;42.130;24.762;2022-11-15T07:44:30;100504.13;;;8.98;99.92
28630;BME280;15817;42.130;24.762;2022-11-15T07:47:14;100501.50;;;9.04;99.97
28630;BME280;15817;42.130;24.762;2022-11-15T07:49:59;100505.91;;;9.02;98.64
28630;BME280;15817;42.130;24.762;2022-11-15T07:52:46;100499.69;;;9.00;98.64
28630;BME280;15817;42.130;24.762;2022-11-15T07:55:31;100504.13;;;9.01;97.76
28630;BME280;15817;42.130;24.762;2022-11-15T07:58:15;100497.94;;;9.02;97.63
28630;BME280;15817;42.130;24.762;2022-11-15T08:01:04;100507.75;;;9.06;97.95
28630;BME280;15817;42.130;24.762;2022-11-15T08:03:49;100503.31;;;9.07;97.46
28630;BME280;15817;42.130;24.762;2022-11-15T08:06:33;100500.69;;;9.08;98.27
28630;BME280;15817;42.130;24.762;2022-11-15T08:09:17;100506.97;;;9.18;97.88
28630;BME280;15817;42.130;24.762;2022-11-15T08:12:02;100492.81;;;9.19;97.69
28630;BME280;15817;42.130;24.762;2022-11-15T08:14:46;100488.44;;;9.23;97.31
28630;BME280;15817;42.130;24.762;2022-11-15T08:17:31;100493.78;;;9.27;96.46
28630;BME280;15817;42.130;24.762;2022-11-15T08:20:16;100491.09;;;9.26;95.64
28630;BME280;15817;42.130;24.762;2022-11-15T08:23:02;100492.06;;;9.31;96.01
28630;BME280;15817;42.130;24.762;2022-11-15T08:25:50;100485.88;;;9.32;96.36
28630;BME280;15817;42.130;24.762;2022-11-15T08:28:35;100479.69;;;9.33;97.48
28630;BME280;15817;42.130;24.762;2022-11-15T08:31:19;100488.59;;;9.41;98.07
28630;BME280;15817;42.130;24.762;2022-11-15T08:34:06;100487.75;;;9.47;97.07
28630;BME280;15817;42.130;24.762;2022-11-15T08:36:50;100478.94;;;9.51;96.61
28630;BME280;15817;42.130;24.762;2022-11-15T08:39:34;100483.41;;;9.55;96.46
28630;BME280;15817;42.130;24.762;2022-11-15T08:42:19;100474.56;;;9.59;96.27
28630;BME280;15817;42.130;24.762;2022-11-15T08:45:03;100474.59;;;9.60;95.72
28630;BME280;15817;42.130;24.762;2022-11-15T08:47:48;100476.44;;;9.67;96.32
28630;BME280;15817;42.130;24.762;2022-11-15T08:50:32;100464.06;;;9.74;96.49
28630;BME280;15817;42.130;24.762;2022-11-15T08:53:16;100465.88;;;9.81;96.01
28630;BME280;15817;42.130;24.762;2022-11-15T08:56:01;100461.50;;;9.88;96.33
28630;BME280;15817;42.130;24.762;2022-11-15T08:58:45;100455.34;;;9.92;95.76
28630;BME280;15817;42.130;24.762;2022-11-15T09:01:30;100446.50;;;9.97;94.80
28630;BME280;15817;42.130;24.762;2022-11-15T09:04:17;100439.47;;;10.05;94.47
28630;BME280;15817;42.130;24.762;2022-11-15T09:07:01;100443.06;;;10.13;94.61
28630;BME280;15817;42.130;24.762;2022-11-15T09:09:45;100429.84;;;10.23;94.81
28630;BME280;15817;42.130;24.762;2022-11-15T09:12:29;100424.56;;;10.30;94.25
28630;BME280;15817;42.130;24.762;2022-11-15T09:15:15;100424.59;;;10.44;93.97
28630;BME280;15817;42.130;24.762;2022-11-15T09:17:59;100408.66;;;10.45;93.91
28630;BME280;15817;42.130;24.762;2022-11-15T09:20:43;100404.22;;;10.50;94.04
28630;BME280;15817;42.130;24.762;2022-11-15T09:23:27;100398.94;;;10.57;93.25
28630;BME280;15817;42.130;24.762;2022-11-15T09:26:12;100399.81;;;10.63;92.26
28630;BME280;15817;42.130;24.762;2022-11-15T09:28:57;100390.13;;;10.71;92.20
28630;BME280;15817;42.130;24.762;2022-11-15T09:31:41;100390.09;;;10.77;92.24
28630;BME280;15817;42.130;24.762;2022-11-15T09:34:25;100384.78;;;10.85;91.78
28630;BME280;15817;42.130;24.762;2022-11-15T09:37:10;100381.25;;;10.91;91.71
28630;BME280;15817;42.130;24.762;2022-11-15T09:39:54;100368.84;;;10.88;90.97
28630;BME280;15817;42.130;24.762;2022-11-15T09:51:34;100353.78;;;11.05;90.39
28630;BME280;15817;42.130;24.762;2022-11-15T09:54:10;100363.53;;;11.18;90.99
28630;BME280;15817;42.130;24.762;2022-11-15T09:56:43;100365.28;;;11.24;91.55
28630;BME280;15817;42.130;24.762;2022-11-15T10:04:53;100345.72;;;11.46;90.63
28630;BME280;15817;42.130;24.762;2022-11-15T10:07:30;100349.28;;;11.51;91.37
28630;BME280;15817;42.130;24.762;2022-11-15T10:10:04;100335.06;;;11.46;91.33
28630;BME280;15817;42.130;24.762;2022-11-15T10:12:38;100338.59;;;11.57;91.50
28630;BME280;15817;42.130;24.762;2022-11-15T10:15:14;100335.94;;;11.62;92.49
28630;BME280;15817;42.130;24.762;2022-11-15T10:18:04;100323.50;;;11.64;92.26
28630;BME280;15817;42.130;24.762;2022-11-15T10:20:58;100321.69;;;11.72;91.91
28630;BME280;15817;42.130;24.762;2022-11-15T10:23:28;100314.56;;;11.82;90.28
28630;BME280;15817;42.130;24.762;2022-11-15T10:25:58;100311.91;;;11.83;89.21
28630;BME280;15817;42.130;24.762;2022-11-15T10:28:30;100319.84;;;11.94;90.95
28630;BME280;15817;42.130;24.762;2022-11-15T10:30:58;100310.06;;;11.99;90.89
28630;BME280;15817;42.130;24.762;2022-11-15T10:33:33;100310.94;;;12.03;89.65
28630;BME280;15817;42.130;24.762;2022-11-15T10:46:39;100285.97;;;12.22;88.05
28630;BME280;15817;42.130;24.762;2022-11-15T10:51:47;100287.66;;;12.32;88.60
28630;BME280;15817;42.130;24.762;2022-11-15T10:56:52;100275.25;;;12.23;88.66
28630;BME280;15817;42.130;24.762;2022-11-15T10:59:31;100282.41;;;12.23;87.17
28630;BME280;15817;42.130;24.762;2022-11-15T11:01:57;100270.88;;;12.13;87.01
28630;BME280;15817;42.130;24.762;2022-11-15T11:04:23;100259.34;;;12.11;87.85
28630;BME280;15817;42.130;24.762;2022-11-15T11:06:58;100258.44;;;12.14;87.79
28630;BME280;15817;42.130;24.762;2022-11-15T11:09:34;100250.44;;;12.12;87.31
28630;BME280;15817;42.130;24.762;2022-11-15T11:12:01;100252.22;;;12.13;87.42
28630;BME280;15817;42.130;24.762;2022-11-15T11:14:30;100255.81;;;12.09;86.96
28630;BME280;15817;42.130;24.762;2022-11-15T11:17:09;100250.47;;;12.09;87.18
28630;BME280;15817;42.130;24.762;2022-11-15T11:25:27;100238.06;;;12.04;90.20
28630;BME280;15817;42.130;24.762;2022-11-15T11:33:54;100224.72;;;12.08;88.28
28630;BME280;15817;42.130;24.762;2022-11-15T11:36:50;100206.94;;;12.03;88.06
28630;BME280;15817;42.130;24.762;2022-11-15T11:39:46;100214.94;;;12.09;88.58
28630;BME280;15817;42.130;24.762;2022-11-15T11:50:36;100209.63;;;12.03;88.88
28630;BME280;15817;42.130;24.762;2022-11-15T11:53:15;100199.00;;;11.96;88.46
28630;BME280;15817;42.130;24.762;2022-11-15T11:55:45;100192.78;;;11.98;89.04
28630;BME280;15817;42.130;24.762;2022-11-15T11:58:34;100199.84;;;12.00;88.68
28630;BME280;15817;42.130;24.762;2022-11-15T12:06:32;100172.25;;;12.10;87.04
28630;BME280;15817;42.130;24.762;2022-11-15T12:09:32;100165.19;;;12.02;86.03
28630;BME280;15817;42.130;24.762;2022-11-15T12:12:17;100174.94;;;12.09;87.18
28630;BME280;15817;42.130;24.762;2022-11-15T12:14:55;100166.00;;;12.13;86.75
28630;BME280;15817;42.130;24.762;2022-11-15T12:17:26;100150.03;;;12.11;86.39
28630;BME280;15817;42.130;24.762;2022-11-15T12:19:56;100150.88;;;12.12;86.54
28630;BME280;15817;42.130;24.762;2022-11-15T12:22:31;100150.03;;;12.10;87.42
28630;BME280;15817;42.130;24.762;2022-11-15T12:25:30;100157.09;;;12.14;87.90
28630;BME280;15817;42.130;24.762;2022-11-15T12:31:00;100139.38;;;12.08;88.26
28630;BME280;15817;42.130;24.762;2022-11-15T12:33:34;100144.66;;;12.13;89.10
28630;BME280;15817;42.130;24.762;2022-11-15T12:38:56;100137.59;;;12.09;87.79
28630;BME280;15817;42.130;24.762;2022-11-15T12:41:27;100129.69;;;12.00;88.55
28630;BME280;15817;42.130;24.762;2022-11-15T12:43:53;100131.41;;;12.04;89.62
28630;BME280;15817;42.130;24.762;2022-11-15T12:49:01;100119.88;;;12.00;88.96
28630;BME280;15817;42.130;24.762;2022-11-15T13:02:33;100103.88;;;12.02;90.28
28630;BME280;15817;42.130;24.762;2022-11-15T13:15:56;100092.38;;;11.98;90.09
28630;BME280;15817;42.130;24.762;2022-11-15T13:18:35;100095.94;;;11.99;89.91
28630;BME280;15817;42.130;24.762;2022-11-15T13:21:32;100093.25;;;11.99;89.74
28630;BME280;15817;42.130;24.762;2022-11-15T13:24:45;100078.19;;;11.90;89.79
28630;BME280;15817;42.130;24.762;2022-11-15T13:27:21;100087.03;;;12.00;90.20
28630;BME280;15817;42.130;24.762;2022-11-15T13:29:48;100090.56;;;12.00;89.79
28630;BME280;15817;42.130;24.762;2022-11-15T13:32:15;100086.09;;;12.01;89.94
28630;BME280;15817;42.130;24.762;2022-11-15T13:34:49;100069.28;;;11.94;89.46
28630;BME280;15817;42.130;24.762;2022-11-15T13:37:48;100069.28;;;11.95;89.59
28630;BME280;15817;42.130;24.762;2022-11-15T13:47:32;100073.75;;;11.89;92.72
28630;BME280;15817;42.130;24.762;2022-11-15T13:49:59;100064.03;;;11.85;92.58
28630;BME280;15817;42.130;24.762;2022-11-15T13:52:36;100064.03;;;11.85;92.84
28630;BME280;15817;42.130;24.762;2022-11-15T13:55:25;100053.41;;;11.82;93.17
28630;BME280;15817;42.130;24.762;2022-11-15T13:58:31;100060.50;;;11.84;93.29
28630;BME280;15817;42.130;24.762;2022-11-15T14:04:13;100057.84;;;11.78;93.63
28630;BME280;15817;42.130;24.762;2022-11-15T14:07:28;100056.09;;;11.79;94.25
28630;BME280;15817;42.130;24.762;2022-11-15T14:09:55;100059.69;;;11.76;94.13
28630;BME280;15817;42.130;24.762;2022-11-15T14:15:31;100045.47;;;11.70;94.01
28630;BME280;15817;42.130;24.762;2022-11-15T14:17:58;100059.66;;;11.73;93.95
28630;BME280;15817;42.130;24.762;2022-11-15T14:20:38;100064.13;;;11.70;93.87
28630;BME280;15817;42.130;24.762;2022-11-15T14:23:23;100053.50;;;11.65;93.89
28630;BME280;15817;42.130;24.762;2022-11-15T14:25:56;100043.75;;;11.63;93.78
28630;BME280;15817;42.130;24.762;2022-11-15T14:30:50;100057.91;;;11.66;94.20
28630;BME280;15817;42.130;24.762;2022-11-15T14:33:23;100051.75;;;11.63;94.19
28630;BME280;15817;42.130;24.762;2022-11-15T14:35:51;100058.88;;;11.60;94.58
28630;BME280;15817;42.130;24.762;2022-11-15T14:38:18;100058.84;;;11.65;95.12
28630;BME280;15817;42.130;24.762;2022-11-15T14:40:44;100065.97;;;11.63;95.51
28630;BME280;15817;42.130;24.762;2022-11-15T14:43:11;100057.09;;;11.58;95.67
28630;BME280;15817;42.130;24.762;2022-11-15T14:45:39;100038.47;;;11.55;95.57
28630;BME280;15817;42.130;24.762;2022-11-15T14:48:08;100042.06;;;11.52;95.97
28630;BME280;15817;42.130;24.762;2022-11-15T14:50:35;100038.53;;;11.47;96.39
28630;BME280;15817;42.130;24.762;2022-11-15T14:53:11;100042.97;;;11.44;96.96
28630;BME280;15817;42.130;24.762;2022-11-15T14:55:43;100038.53;;;11.49;96.81
28630;BME280;15817;42.130;24.762;2022-11-15T14:58:09;100038.53;;;11.44;97.16
28630;BME280;15817;42.130;24.762;2022-11-15T15:00:40;100039.41;;;11.46;97.59
28630;BME280;15817;42.130;24.762;2022-11-15T15:03:08;100040.38;;;11.39;97.13
28630;BME280;15817;42.130;24.762;2022-11-15T15:08:10;100038.59;;;11.40;97.63
28630;BME280;15817;42.130;24.762;2022-11-15T15:10:45;100032.41;;;11.33;97.82
28630;BME280;15817;42.130;24.762;2022-11-15T15:13:23;100038.63;;;11.34;98.42
28630;BME280;15817;42.130;24.762;2022-11-15T15:16:00;100044.84;;;11.33;98.14
28630;BME280;15817;42.130;24.762;2022-11-15T15:18:26;100044.84;;;11.31;98.70
28630;BME280;15817;42.130;24.762;2022-11-15T15:20:59;100045.72;;;11.33;98.57
28630;BME280;15817;42.130;24.762;2022-11-15T15:23:44;100048.41;;;11.30;98.86
28630;BME280;15817;42.130;24.762;2022-11-15T15:26:10;100043.13;;;11.24;99.47
28630;BME280;15817;42.130;24.762;2022-11-15T15:28:35;100047.53;;;11.30;99.19
28630;BME280;15817;42.130;24.762;2022-11-15T15:31:02;100049.31;;;11.26;98.92
28630;BME280;15817;42.130;24.762;2022-11-15T15:33:32;100041.41;;;11.18;98.78
28630;BME280;15817;42.130;24.762;2022-11-15T15:35:57;100044.94;;;11.16;98.93
28630;BME280;15817;42.130;24.762;2022-11-15T15:38:27;100053.78;;;11.19;98.83
28630;BME280;15817;42.130;24.762;2022-11-15T15:40:53;100048.50;;;11.15;98.93
28630;BME280;15817;42.130;24.762;2022-11-15T15:43:20;100049.38;;;11.17;99.03
28630;BME280;15817;42.130;24.762;2022-11-15T15:45:46;100053.81;;;11.16;98.96
28630;BME280;15817;42.130;24.762;2022-11-15T15:48:13;100039.63;;;11.10;98.71
28630;BME280;15817;42.130;24.762;2022-11-15T15:50:40;100050.28;;;11.14;98.79
28630;BME280;15817;42.130;24.762;2022-11-15T15:53:16;100046.72;;;11.12;98.96
28630;BME280;15817;42.130;24.762;2022-11-15T15:55:42;100051.19;;;11.09;99.00
28630;BME280;15817;42.130;24.762;2022-11-15T15:58:08;100052.94;;;11.10;99.02
28630;BME280;15817;42.130;24.762;2022-11-15T16:00:36;100035.25;;;11.01;98.85
28630;BME280;15817;42.130;24.762;2022-11-15T16:03:03;100041.47;;;11.00;98.79
28630;BME280;15817;42.130;24.762;2022-11-15T16:05:36;100048.56;;;11.01;98.84
28630;BME280;15817;42.130;24.762;2022-11-15T16:08:05;100052.13;;;10.99;98.74
28630;BME280;15817;42.130;24.762;2022-11-15T16:10:32;100049.50;;;10.93;99.05
28630;BME280;15817;42.130;24.762;2022-11-15T16:13:02;100042.41;;;10.92;99.48
28630;BME280;15817;42.130;24.762;2022-11-15T16:15:30;100046.84;;;10.91;99.34